Flight Track Log - Related Links

Times and Time Zones

All times are in EDT time to prevent confusion due to time zone crossing. See the SWA1035 flight status page for this flight to view local times or setup timezone preferences in your user account.

Time Position Orientation Groundspeed Altitude Reporting Facility
EDT Latitude Longitude Course Direction KTS MPH feet Rate Location/Type
Thu 17:33:33 35.0053 -106.6539 228° Southwest 159 183 6,900  Level Albuquerque Center
Thu 17:34:12 34.9847 -106.6867 233° Southwest 199 229 8,200 2,200 Climbing Albuquerque Center
Thu 17:34:33 34.9711 -106.7147 239° Southwest 233 268 9,100 1,935 Climbing Albuquerque Center
Thu 17:35:14 34.9858 -106.7631 290° West 248 285 10,200 2,913 Climbing Albuquerque Center
Thu 17:36:16 35.0603 -106.8175 329° Northwest 304 350 14,100 3,629 Climbing Albuquerque Center
Thu 17:37:18 35.1669 -106.8339 353° North 335 386 17,700 2,855 Climbing Albuquerque Center
Thu 17:38:20 35.2614 -106.8694 343° North 338 389 20,000 1,113 Climbing Albuquerque Center
Thu 17:39:22 35.3514 -106.9133 338° Northwest 360 414 20,000 48 Level Albuquerque Center
Thu 17:40:24 35.4428 -106.9567 339° North 359 413 20,100 1,306 Climbing Albuquerque Center
Thu 17:41:26 35.5350 -107.0017 338° Northwest 357 411 22,700 2,565 Climbing Albuquerque Center
Thu 17:42:28 35.6489 -107.0561 339° North 363 418 25,400 2,371 Climbing Albuquerque Center
Thu 17:43:30 35.7431 -107.1019 338° Northwest 373 429 27,600 1,790 Climbing Albuquerque Center
Thu 17:44:32 35.8511 -107.1561 338° Northwest 376 433 29,100 968 Climbing Albuquerque Center
Thu 17:45:34 35.9586 -107.2058 339° North 421 484 29,600 774 Climbing Albuquerque Center
Thu 17:46:36 36.0708 -107.2622 338° Northwest 449 517 30,700 1,742 Climbing Albuquerque Center
Thu 17:47:38 36.2067 -107.3292 338° Northwest 465 535 33,200 2,129 Climbing Albuquerque Center
Thu 17:48:40 36.3175 -107.3833 339° North 456 525 35,100 1,742 Climbing Albuquerque Center
Thu 17:49:42 36.4444 -107.4475 338° Northwest 445 512 36,800 1,415 Climbing Albuquerque Center
Thu 17:50:43 36.5342 -107.5267 325° Northwest 427 491 38,000 571 Climbing Albuquerque Center
Thu 17:51:48 36.6217 -107.6347 315° West 402 463 38,000  Level Denver Center
Thu 17:52:50 36.7100 -107.7444 315° West 402 463 38,000  Level Denver Center
Thu 17:53:52 36.7847 -107.8375 315° West 399 459 38,000  Level Denver Center
Thu 17:54:54 36.8717 -107.9461 315° West 397 457 38,000  Level Denver Center
Thu 17:55:57 36.9467 -108.0408 315° West 402 463 38,000  Level Denver Center
Thu 17:56:59 37.0350 -108.1517 315° West 404 465 38,000  Level Denver Center
Thu 17:58:01 37.1100 -108.2486 314° West 405 466 38,000  Level Denver Center
Thu 17:59:03 37.1997 -108.3619 315° West 410 472 38,000  Level Denver Center
Thu 18:00:05 37.2769 -108.4619 314° West 415 478 38,000  Level Denver Center
Thu 18:01:07 37.3681 -108.5772 315° West 415 478 38,000  Level Denver Center
Thu 18:02:08 37.4328 -108.6589 315° West 415 478 38,000  Level Denver Center
Thu 18:03:11 37.5231 -108.7758 314° West 416 479 38,000  Level Denver Center
Thu 18:04:13 37.6139 -108.8944 314° West 420 483 38,000  Level Denver Center
Thu 18:05:15 37.6917 -108.9944 315° West 419 482 38,000  Level Denver Center
Thu 18:06:17 37.7822 -109.1119 314° West 418 481 38,000  Level Denver Center
Thu 18:07:19 37.8611 -109.2139 314° West 424 488 38,000  Level Denver Center
Thu 18:08:21 37.9517 -109.3347 314° West 425 489 38,000  Level Denver Center
Thu 18:09:23 38.0303 -109.4367 314° West 423 487 38,000  Level Denver Center
Thu 18:10:25 38.1181 -109.5531 314° West 425 489 38,000  Level Denver Center
Thu 18:11:27 38.2097 -109.6728 314° West 423 487 38,000  Level Denver Center
Thu 18:12:29 38.2864 -109.7772 313° West 423 487 38,000  Level Denver Center
Thu 18:13:31 38.3647 -109.8811 314° West 423 487 38,000  Level Denver Center
Thu 18:14:33 38.4558 -110.0019 314° West 423 487 38,000  Level Denver Center
Thu 18:15:35 38.5347 -110.1086 313° West 429 494 38,000  Level Denver Center
Thu 18:16:17 38.6022 -110.1992 314° West 431 496 38,000  Level Salt Lake Center
Thu 18:16:37 38.6261 -110.2325 313° West 429 494 38,000  Level Denver Center
Thu 18:17:39 38.7047 -110.3389 313° West 428 493 38,000  Level Denver Center
Thu 18:18:20 38.7714 -110.4297 313° West 429 494 38,000  Level Salt Lake Center
Thu 18:19:22 38.8503 -110.5353 314° West 428 493 38,000  Level Salt Lake Center
Thu 18:19:43 38.8750 -110.5706 312° West 430 495 38,000  Level Denver Center
Thu 18:20:24 38.9281 -110.6411 314° West 425 489 38,000  Level Salt Lake Center
Thu 18:21:26 39.0158 -110.7647 312° West 419 482 38,000  Level Salt Lake Center
Thu 18:22:28 39.0936 -110.8714 313° West 424 488 38,000  Level Salt Lake Center
Thu 18:23:29 39.1842 -110.9961 313° West 425 489 38,000  Level Salt Lake Center
Thu 18:24:31 39.2625 -111.1044 313° West 428 493 38,000  Level Salt Lake Center
Thu 18:25:33 39.3539 -111.2317 313° West 432 497 38,000  Level Salt Lake Center
Thu 18:26:35 39.4372 -111.3475 313° West 430 495 38,000  Level Salt Lake Center
Thu 18:27:37 39.5178 -111.4617 312° West 430 495 38,000  Level Salt Lake Center
Thu 18:28:38 39.5989 -111.5747 313° West 428 493 38,000  Level Salt Lake Center
Thu 18:29:40 39.6783 -111.6864 313° West 424 488 38,000  Level Salt Lake Center
Thu 18:30:42 39.7581 -111.7994 313° West 424 488 38,000  Level Salt Lake Center
Thu 18:31:44 39.8383 -111.9131 313° West 425 489 38,000  Level Salt Lake Center
Thu 18:32:46 39.9183 -112.0289 312° West 428 493 38,000  Level Salt Lake Center
Thu 18:33:48 40.0136 -112.1650 312° West 424 488 38,000 195 Level Salt Lake Center
Thu 18:34:49 40.0936 -112.2797 312° West 427 491 38,400 780 Climbing Salt Lake Center
Thu 18:35:51 40.1736 -112.3961 312° West 429 494 39,600 774 Climbing Salt Lake Center
Thu 18:36:53 40.2517 -112.5100 312° West 423 487 40,000 194 Climbing Salt Lake Center
Thu 18:37:55 40.3300 -112.6228 312° West 418 481 40,000  Level Salt Lake Center
Thu 18:38:57 40.4078 -112.7383 311° West 421 484 40,000  Level Salt Lake Center
Thu 18:39:59 40.4856 -112.8519 312° West 419 482 40,000  Level Salt Lake Center
Thu 18:41:01 40.5794 -112.9900 312° West 421 484 40,000  Level Salt Lake Center
Thu 18:42:02 40.6578 -113.1047 312° West 421 484 40,000  Level Salt Lake Center
Thu 18:43:04 40.7358 -113.2203 312° West 422 486 40,000  Level Salt Lake Center
Thu 18:44:06 40.8128 -113.3347 312° West 419 482 40,000  Level Salt Lake Center
Thu 18:45:08 40.8881 -113.4497 311° West 415 478 40,000  Level Salt Lake Center
Thu 18:46:10 40.9647 -113.5636 312° West 414 476 40,000  Level Salt Lake Center
Thu 18:47:12 41.0394 -113.6786 311° West 413 475 40,000  Level Salt Lake Center
Thu 18:48:13 41.1286 -113.8158 311° West 411 473 40,000  Level Salt Lake Center
Thu 18:49:15 41.2047 -113.9300 312° West 412 474 40,000  Level Salt Lake Center
Thu 18:50:17 41.2794 -114.0461 311° West 413 475 40,000  Level Salt Lake Center
Thu 18:51:19 41.3544 -114.1628 311° West 415 478 40,000  Level Salt Lake Center
Thu 18:52:21 41.4344 -114.2806 312° West 423 487 40,000  Level Salt Lake Center
Thu 18:53:22 41.5111 -114.3986 311° West 423 487 40,000  Level Salt Lake Center
Thu 18:54:24 41.5961 -114.5331 310° West 427 491 40,000  Level Salt Lake Center
Thu 18:55:26 41.6708 -114.6469 311° West 426 490 40,000  Level Salt Lake Center
Thu 18:56:27 41.7547 -114.7800 310° West 419 482 40,000  Level Salt Lake Center
Thu 18:57:29 41.8267 -114.8936 310° West 418 481 40,000  Level Salt Lake Center
Thu 18:58:31 41.9128 -115.0278 311° West 418 481 40,000  Level Salt Lake Center
Thu 18:59:33 41.9853 -115.1411 311° West 419 482 40,000  Level Salt Lake Center
Thu 19:00:34 42.0678 -115.2747 310° West 415 478 40,000  Level Salt Lake Center
Thu 19:01:36 42.1419 -115.3936 310° West 418 481 40,000  Level Salt Lake Center
Thu 19:02:38 42.2131 -115.5086 310° West 417 480 40,000  Level Salt Lake Center
Thu 19:03:39 42.2958 -115.6414 310° West 414 476 40,000  Level Salt Lake Center
Thu 19:04:41 42.3661 -115.7561 310° West 414 476 40,000  Level Salt Lake Center
Thu 19:05:43 42.4358 -115.8700 310° West 409 471 40,000  Level Salt Lake Center
Thu 19:06:44 42.5183 -116.0047 310° West 414 476 40,000  Level Salt Lake Center
Thu 19:07:46 42.5889 -116.1203 310° West 415 478 40,000  Level Salt Lake Center
Thu 19:08:48 42.6714 -116.2550 310° West 415 478 40,000  Level Salt Lake Center
Thu 19:09:49 42.7406 -116.3719 309° West 415 478 40,000  Level Salt Lake Center
Thu 19:10:51 42.8236 -116.5078 310° West 416 479 40,000  Level Salt Lake Center
Thu 19:11:53 42.8933 -116.6253 309° West 415 478 40,000  Level Salt Lake Center
Thu 19:12:55 42.9633 -116.7428 309° West 417 480 40,000  Level Salt Lake Center
Thu 19:13:56 43.0439 -116.8778 309° West 409 471 40,000  Level Salt Lake Center
Thu 19:14:58 43.1122 -116.9919 309° West 405 466 40,000  Level Salt Lake Center
Thu 19:16:00 43.1903 -117.1256 309° West 400 460 40,000  Level Salt Lake Center
Thu 19:17:01 43.2589 -117.2414 309° West 406 467 40,000  Level Salt Lake Center
Thu 19:18:03 43.3378 -117.3778 309° West 408 470 40,000  Level Salt Lake Center
Thu 19:19:05 43.4058 -117.4942 309° West 407 468 40,000  Level Salt Lake Center
Thu 19:20:07 43.4736 -117.6081 309° West 402 463 40,000  Level Salt Lake Center
Thu 19:21:08 43.5522 -117.7453 308° West 406 467 40,000  Level Salt Lake Center
Thu 19:22:10 43.6192 -117.8625 308° West 406 467 40,000  Level Salt Lake Center
Thu 19:23:12 43.6978 -117.9981 309° West 404 465 40,000  Level Salt Lake Center
Thu 19:24:14 43.7625 -118.1128 308° West 396 456 40,000  Level Salt Lake Center
Thu 19:25:15 43.8264 -118.2233 309° West 386 444 40,000  Level Salt Lake Center
Thu 19:26:17 43.9003 -118.3547 308° West 386 444 40,000  Level Salt Lake Center
Thu 19:27:19 43.9642 -118.4681 308° West 388 447 40,000  Level Salt Lake Center
Thu 19:28:21 44.0375 -118.6003 308° West 387 445 40,000  Level Salt Lake Center
Thu 19:29:22 44.1017 -118.7133 308° West 388 447 40,000  Level Salt Lake Center
Thu 19:30:15 44.1625 -118.8275 307° West 390 449 40,000  Level Seattle Center
Thu 19:31:16 44.2256 -118.9422 308° West 389 448 40,000  Level Seattle Center
Thu 19:32:17 44.2864 -119.0550 307° West 383 441 40,000  Level Seattle Center
Thu 19:33:18 44.3633 -119.1894 309° West 392 451 40,000  Level Seattle Center
Thu 19:34:19 44.4275 -119.3097 307° West 385 443 40,000  Level Seattle Center
Thu 19:35:21 44.4981 -119.4306 309° West 395 455 40,000  Level Seattle Center
Thu 19:36:22 44.5625 -119.5525 307° West 392 451 40,000  Level Seattle Center
Thu 19:37:23 44.6278 -119.6717 308° West 388 447 40,000  Level Seattle Center
Thu 19:38:24 44.6919 -119.7925 307° West 387 445 40,000  Level Seattle Center
Thu 19:39:25 44.7569 -119.9139 307° West 389 448 40,000  Level Seattle Center
Thu 19:40:26 44.8228 -120.0375 307° West 393 452 40,000 -639 Level Seattle Center
Thu 19:41:27 44.8853 -120.1561 307° West 382 440 38,700 -1,854 Descending Seattle Center
Thu 19:42:29 44.9492 -120.2739 307° West 380 437 36,200 -2,488 Descending Seattle Center
Thu 19:43:30 45.0208 -120.4139 306° West 372 428 33,600 -2,262 Descending Seattle Center
Thu 19:44:31 45.0808 -120.5275 307° West 363 418 31,600 -1,623 Descending Seattle Center
Thu 19:45:32 45.1392 -120.6397 306° West 357 411 30,300 -1,574 Descending Seattle Center
Thu 19:46:33 45.2008 -120.7608 306° West 374 430 28,400 -2,016 Descending Seattle Center
Thu 19:47:34 45.2611 -120.8747 307° West 368 423 26,200 -2,115 Descending Seattle Center
Thu 19:48:35 45.3194 -120.9900 306° West 361 415 24,100 -2,049 Descending Seattle Center
Thu 19:49:37 45.3744 -121.0967 306° West 344 396 22,000 -2,049 Descending Seattle Center
Thu 19:50:38 45.4278 -121.2050 305° West 337 388 19,900 -2,115 Descending Seattle Center
Thu 19:51:39 45.4503 -121.3458 283° West 358 412 17,700 -2,242 Descending Seattle Center
Thu 19:52:09 45.4561 -121.4292 276° West 338 389 16,500 -1,967 Descending Seattle Center
Thu 19:52:40 45.4658 -121.4742 287° West 338 389 15,700 -1,912 Descending Seattle Center
Thu 19:53:40 45.4781 -121.6147 277° West 322 371 13,600 -2,037 Descending Seattle Center
Thu 19:54:29 45.4908 -121.7172 280° West 316 364 12,000 -1,759 Descending Seattle Center
Thu 19:55:36 45.5050 -121.8472 279° West 306 352 10,200 -1,388 Descending Seattle Center
Thu 19:56:30 45.5064 -121.9581 271° West 281 323 9,200 -1,181 Descending Seattle Center
Thu 19:57:43 45.5086 -122.0836 271° West 270 311 7,700 -1,030 Descending Seattle Center
Thu 19:58:44 45.5083 -122.1764 270° West 217 250 6,900 -816 Descending Seattle Center
Thu 19:59:48 45.5094 -122.2603 271° West 219 252 6,000 -934 Descending Seattle Center
Thu 20:00:46 45.4892 -122.3264 246° West 160 184 5,000 -1,115 Descending Seattle Center
Thu 20:01:41 45.5064 -122.3686 300° West 123 142 3,900 -1,304 Descending Seattle Center
Thu 20:02:41 45.5222 -122.4144 296° West 126 145 2,500 -1,008 Descending Seattle Center
Thu 20:03:52 45.5411 -122.4567 303° West 130 150 1,700 -689 Descending Seattle Center
Thu 20:04:43 45.5567 -122.4989 298° West 127 146 1,100 -639 Descending Seattle Center
Thu 20:05:54 45.5742 -122.5436 299° West 126 145 400 -592 Descending Seattle Center
Thu 20:07:00 45.5833 -122.5833 282° West  Level FlightAware Approximate

Login

Don't have an account? Register now (free) for customized features, flight alerts, and more!